Time;durP1;ratioP1;P1;durP2;ratioP2;P2;SDS_P1;SDS_P2;PMS_P1;PMS_P2;Temp;Humidity;BMP_temperature;BMP_pressure;BME280_temperature;BME280_humidity;BME280_pressure;Samples;Min_cycle;Max_cycle;Signal;HPM_P1;HPM_P2
2022/04/13 00:00:36;;;;;;;2.27;0.90;;;;;;;4.46;85.54;99751.56;1684021;84;21078;-69
2022/04/13 00:03:02;;;;;;;2.92;0.70;;;;;;;4.46;85.56;99746.34;1684037;84;21144;-69
2022/04/13 00:07:41;;;;;;;1.47;0.80;;;;;;;4.48;86.78;99745.88;1795932;79;28432;-71
2022/04/13 00:10:09;;;;;;;1.55;0.80;;;;;;;4.42;86.75;99742.95;1756376;81;21199;-69
2022/04/13 00:12:37;;;;;;;3.00;0.90;;;;;;;4.44;87.20;99755.94;1756702;81;21143;-70
2022/04/13 00:15:06;;;;;;;1.82;0.90;;;;;;;4.45;87.60;99749.85;1756492;81;21053;-70
2022/04/13 00:17:36;;;;;;;2.67;0.78;;;;;;;4.43;88.42;99745.11;1756836;81;21040;-70
2022/04/13 00:20:05;;;;;;;1.85;1.20;;;;;;;4.44;88.92;99748.11;1756451;81;21053;-71
2022/04/13 00:22:32;;;;;;;2.60;0.90;;;;;;;4.40;89.98;99741.66;1756712;81;21085;-69
2022/04/13 00:24:58;;;;;;;1.47;0.82;;;;;;;4.37;90.18;99749.55;1756478;81;21294;-70
2022/04/13 00:27:26;;;;;;;1.25;0.80;;;;;;;4.37;90.78;99752.58;1756345;81;20974;-71
2022/04/13 00:29:53;;;;;;;3.72;1.12;;;;;;;4.34;91.32;99745.67;1756207;81;21033;-70
2022/04/13 00:32:20;;;;;;;1.00;0.70;;;;;;;4.31;91.78;99737.91;1756410;81;21093;-71
2022/04/13 00:34:48;;;;;;;3.62;0.80;;;;;;;4.29;92.90;99735.77;1756393;81;21069;-69
2022/04/13 00:37:15;;;;;;;0.90;0.70;;;;;;;4.27;92.79;99736.24;1756312;81;21581;-68
2022/04/13 00:39:43;;;;;;;2.02;0.90;;;;;;;4.27;92.93;99729.73;1756269;81;21077;-69
2022/04/13 00:42:16;;;;;;;1.33;0.80;;;;;;;4.25;93.52;99725.43;1756899;81;21040;-70
2022/04/13 00:44:44;;;;;;;3.30;0.70;;;;;;;4.22;93.75;99732.86;1756525;81;21006;-71
2022/04/13 00:47:12;;;;;;;2.90;1.30;;;;;;;4.22;93.79;99742.44;1756488;81;21081;-70
2022/04/13 00:49:41;;;;;;;3.37;0.72;;;;;;;4.19;94.42;99736.84;1756520;81;21490;-70
2022/04/13 00:52:08;;;;;;;1.37;1.00;;;;;;;4.17;94.49;99724.27;1758867;81;21024;-70
2022/04/13 00:54:35;;;;;;;2.22;0.80;;;;;;;4.16;94.32;99719.92;1759446;81;21091;-70
2022/04/13 00:57:09;;;;;;;1.52;0.80;;;;;;;4.17;94.13;99729.48;1759263;81;21036;-70
2022/04/13 00:59:38;;;;;;;2.92;0.80;;;;;;;4.17;94.34;99729.48;1759663;81;21071;-69
2022/04/13 01:02:07;;;;;;;1.50;0.70;;;;;;;4.19;94.32;99735.53;1759838;81;21790;-69
2022/04/13 01:04:36;;;;;;;1.47;0.93;;;;;;;4.16;94.58;99730.35;1759441;81;21043;-70
2022/04/13 01:07:10;;;;;;;1.87;0.80;;;;;;;4.16;94.13;99731.66;1752558;81;21052;-70
2022/04/13 01:09:41;;;;;;;1.55;0.90;;;;;;;4.18;94.39;99727.28;1748707;82;21033;-70
2022/04/13 01:12:10;;;;;;;1.98;0.88;;;;;;;4.18;94.40;99728.58;1749065;82;21009;-70
2022/04/13 01:14:37;;;;;;;1.22;0.72;;;;;;;4.18;94.61;99728.58;1748844;81;21076;-71
2022/04/13 01:17:04;;;;;;;1.25;0.70;;;;;;;4.16;94.74;99720.81;1748672;81;21048;-70
2022/04/13 01:19:32;;;;;;;3.72;0.98;;;;;;;4.18;94.96;99720.77;1743718;82;21037;-70
2022/04/13 01:22:22;;;;;;;0.88;0.80;;;;;;;4.20;95.01;99725.52;1748214;82;21564;-70
2022/04/13 01:24:49;;;;;;;1.72;0.80;;;;;;;4.19;95.05;99730.32;1748247;82;21036;-69
2022/04/13 01:27:16;;;;;;;1.42;0.85;;;;;;;4.17;95.68;99737.30;1748022;82;21154;-70
2022/04/13 01:29:44;;;;;;;1.00;0.68;;;;;;;4.16;95.91;99732.96;1747975;82;21049;-70
2022/04/13 01:32:11;;;;;;;2.52;1.20;;;;;;;4.16;95.95;99732.96;1748116;82;20989;-69
2022/04/13 01:34:50;;;;;;;2.70;1.20;;;;;;;4.17;96.00;99725.13;1747947;82;21036;-70
2022/04/13 01:37:16;;;;;;;1.72;1.05;;;;;;;4.19;95.63;99723.80;1747994;82;21029;-70
2022/04/13 01:39:44;;;;;;;2.87;0.93;;;;;;;4.19;95.56;99730.32;1748029;82;21269;-71
2022/04/13 01:42:12;;;;;;;1.80;0.90;;;;;;;4.20;95.68;99719.00;1748116;82;20978;-71
2022/04/13 01:44:41;;;;;;;1.67;0.90;;;;;;;4.22;95.51;99719.83;1748281;82;21039;-71
2022/04/13 01:47:09;;;;;;;2.77;1.27;;;;;;;4.21;95.55;99720.73;1748404;82;21049;-71
2022/04/13 01:49:38;;;;;;;2.98;0.90;;;;;;;4.20;95.74;99713.78;1748011;82;21005;-70
2022/04/13 01:52:06;;;;;;;4.25;1.00;;;;;;;4.19;95.61;99725.11;1748087;82;21241;-70
2022/04/13 01:54:33;;;;;;;2.12;1.12;;;;;;;4.21;95.67;99718.13;1748326;82;21011;-69
2022/04/13 01:57:00;;;;;;;1.92;1.07;;;;;;;4.21;95.55;99714.22;1747964;82;21041;-70
2022/04/13 01:59:28;;;;;;;1.62;0.95;;;;;;;4.22;95.62;99722.44;1748087;82;21068;-68
2022/04/13 02:01:56;;;;;;;1.72;0.90;;;;;;;4.22;95.96;99718.53;1748265;82;21002;-69
2022/04/13 02:04:25;;;;;;;1.85;1.10;;;;;;;4.22;96.04;99715.07;1748133;82;21580;-69
2022/04/13 02:06:53;;;;;;;2.55;1.10;;;;;;;4.20;96.35;99704.66;1747920;81;21009;-70
2022/04/13 02:09:22;;;;;;;2.47;0.90;;;;;;;4.18;96.61;99715.55;1748116;82;21557;-69
2022/04/13 02:11:49;;;;;;;2.47;0.98;;;;;;;4.16;97.10;99719.92;1748072;82;21032;-70
2022/04/13 02:14:17;;;;;;;1.73;0.93;;;;;;;4.12;98.08;99710.47;1748144;82;21874;-70
2022/04/13 02:16:46;;;;;;;1.77;1.00;;;;;;;4.11;98.54;99726.97;1748129;82;21246;-70
2022/04/13 02:19:14;;;;;;;2.37;0.80;;;;;;;4.10;98.99;99710.94;1747782;82;21005;-70
2022/04/13 02:21:41;;;;;;;1.45;0.60;;;;;;;4.07;99.58;99727.91;1748177;82;21036;-70
2022/04/13 02:24:09;;;;;;;0.90;0.80;;;;;;;4.06;99.68;99727.50;1747923;82;21159;-70
2022/04/13 02:26:36;;;;;;;1.87;1.05;;;;;;;4.05;99.65;99719.25;1748044;82;21048;-70
2022/04/13 02:29:03;;;;;;;1.50;0.98;;;;;;;4.06;99.42;99715.77;1748042;82;21144;-70
2022/04/13 02:31:31;;;;;;;2.80;1.00;;;;;;;4.07;99.41;99718.78;1748061;82;21573;-70
2022/04/13 02:33:58;;;;;;;3.15;1.12;;;;;;;4.04;99.52;99714.94;1748032;82;21088;-69
2022/04/13 02:36:26;;;;;;;3.42;1.30;;;;;;;4.07;99.27;99710.97;1748102;82;21136;-70
2022/04/13 02:38:54;;;;;;;1.95;0.90;;;;;;;4.08;99.49;99717.91;1748034;82;21088;-71
2022/04/13 02:41:21;;;;;;;1.42;0.95;;;;;;;4.05;99.69;99721.86;1748390;82;21097;-69
2022/04/13 02:43:49;;;;;;;3.60;0.98;;;;;;;4.03;99.87;99729.72;1748201;82;21006;-70
2022/04/13 02:46:15;;;;;;;1.75;0.75;;;;;;;4.05;99.64;99730.97;1748014;82;21045;-69
2022/04/13 02:48:42;;;;;;;1.90;1.10;;;;;;;4.04;99.56;99724.06;1748044;82;21048;-69
2022/04/13 02:51:08;;;;;;;1.07;0.85;;;;;;;4.04;99.57;99733.18;1748033;82;21588;-70
2022/04/13 02:53:36;;;;;;;1.25;0.82;;;;;;;4.04;99.63;99727.97;1748077;82;21528;-71
2022/04/13 02:56:03;;;;;;;2.10;1.10;;;;;;;4.05;99.24;99722.74;1747908;82;21076;-70
2022/04/13 02:58:31;;;;;;;2.20;0.95;;;;;;;4.05;99.14;99722.74;1748203;82;21024;-70
2022/04/13 03:00:58;;;;;;;2.17;0.80;;;;;;;4.01;99.56;99730.19;1748163;82;21044;-71
2022/04/13 03:03:24;;;;;;;1.52;0.90;;;;;;;4.02;99.41;99724.07;1719071;82;21013;-70
2022/04/13 03:05:51;;;;;;;0.70;0.65;;;;;;;4.02;99.46;99724.52;1748056;82;21139;-70
2022/04/13 03:08:18;;;;;;;0.75;0.70;;;;;;;4.01;99.47;99735.84;1748050;81;21580;-69
2022/04/13 03:10:46;;;;;;;1.52;0.70;;;;;;;4.03;99.34;99734.08;1748015;82;21032;-70
2022/04/13 03:13:14;;;;;;;2.15;0.70;;;;;;;4.03;99.33;99726.27;1748328;82;21052;-69
2022/04/13 03:15:42;;;;;;;2.45;0.90;;;;;;;4.06;99.58;99731.41;1748225;82;21036;-70
2022/04/13 03:18:08;;;;;;;2.35;0.90;;;;;;;4.02;99.53;99741.46;1748054;82;21099;-70
2022/04/13 03:20:35;;;;;;;0.98;0.70;;;;;;;3.94;99.50;99721.61;1747997;82;20998;-70
2022/04/13 03:23:03;;;;;;;2.45;0.98;;;;;;;4.02;99.63;99737.55;1748121;82;21540;-69
2022/04/13 03:25:30;;;;;;;1.02;0.68;;;;;;;4.02;99.75;99736.25;1747850;82;21794;-70
2022/04/13 03:27:58;;;;;;;2.12;1.00;;;;;;;4.03;99.74;99727.56;1747840;82;21067;-69
2022/04/13 03:30:25;;;;;;;2.80;0.85;;;;;;;4.02;99.60;99730.59;1747771;82;21149;-69
2022/04/13 03:32:51;;;;;;;2.10;0.60;;;;;;;4.01;100.00;99722.37;1747593;82;21103;-70
2022/04/13 03:35:19;;;;;;;1.52;0.70;;;;;;;4.01;99.90;99722.81;1747506;82;21112;-71
2022/04/13 03:37:48;;;;;;;2.10;1.00;;;;;;;4.03;99.70;99721.05;1747714;82;21100;-70
2022/04/13 03:40:14;;;;;;;3.75;1.10;;;;;;;4.04;99.89;99730.58;1747972;82;20990;-70
2022/04/13 03:42:42;;;;;;;1.17;0.78;;;;;;;4.04;100.00;99729.27;1748047;82;22194;-69
2022/04/13 03:45:12;;;;;;;1.65;0.80;;;;;;;4.04;100.00;99738.39;1747879;82;21048;-70
2022/04/13 03:47:39;;;;;;;1.57;0.88;;;;;;;4.04;100.00;99726.21;1748176;82;21628;-70
2022/04/13 03:50:08;;;;;;;5.60;0.95;;;;;;;4.04;100.00;99727.52;1747956;82;21028;-70
2022/04/13 03:52:35;;;;;;;2.00;0.80;;;;;;;4.04;100.00;99741.00;1748105;82;21133;-70
2022/04/13 03:55:04;;;;;;;1.45;0.82;;;;;;;4.04;100.00;99743.60;1748097;82;21223;-69
2022/04/13 03:57:32;;;;;;;1.72;0.95;;;;;;;4.04;100.00;99744.45;1748423;82;21036;-69
2022/04/13 03:59:59;;;;;;;1.60;0.80;;;;;;;4.04;100.00;99738.39;1747935;82;21541;-71
2022/04/13 04:02:27;;;;;;;1.07;0.70;;;;;;;4.03;100.00;99739.29;1775612;80;21081;-69
2022/04/13 04:04:56;;;;;;;1.52;0.80;;;;;;;4.04;100.00;99743.60;1778941;80;21072;-70
2022/04/13 04:07:22;;;;;;;1.20;0.80;;;;;;;4.01;100.00;99739.75;1780951;80;21841;-70
2022/04/13 04:09:50;;;;;;;1.00;0.85;;;;;;;4.02;100.00;99740.16;1784633;80;20994;-70
2022/04/13 04:12:17;;;;;;;1.00;0.68;;;;;;;4.04;100.00;99743.60;1784698;80;21515;-70
2022/04/13 04:14:44;;;;;;;2.60;1.30;;;;;;;3.99;100.00;99756.70;1784861;80;21088;-70
2022/04/13 04:17:11;;;;;;;1.50;0.90;;;;;;;4.01;100.00;99761.91;1784558;80;21037;-69
2022/04/13 04:19:39;;;;;;;1.07;0.85;;;;;;;4.01;100.00;99754.09;1784504;80;21021;-70
2022/04/13 04:22:05;;;;;;;1.45;0.80;;;;;;;4.01;100.00;99751.03;1784516;80;21032;-70
2022/04/13 04:24:32;;;;;;;1.55;0.95;;;;;;;4.02;100.00;99755.80;1784641;80;21012;-69
2022/04/13 04:27:00;;;;;;;1.65;0.90;;;;;;;4.03;100.00;99750.56;1784641;80;21504;-70
2022/04/13 04:29:27;;;;;;;1.87;0.90;;;;;;;4.01;100.00;99743.66;1784722;80;20985;-69
2022/04/13 04:31:54;;;;;;;1.87;0.93;;;;;;;4.02;100.00;99750.58;1784739;80;21513;-70
2022/04/13 04:34:23;;;;;;;1.55;0.75;;;;;;;4.02;100.00;99750.13;1784494;80;21033;-71
2022/04/13 04:36:50;;;;;;;2.10;1.20;;;;;;;4.00;100.00;99757.11;1784680;80;21076;-69
2022/04/13 04:39:18;;;;;;;0.80;0.70;;;;;;;4.03;100.00;99758.83;1784380;80;21083;-70
2022/04/13 04:41:45;;;;;;;2.65;0.88;;;;;;;4.02;100.00;99764.91;1784680;80;20993;-69
2022/04/13 04:44:13;;;;;;;1.62;0.90;;;;;;;4.03;100.00;99762.74;1784663;80;21033;-70
2022/04/13 04:46:41;;;;;;;1.77;0.90;;;;;;;4.03;100.00;99767.95;1784520;80;21092;-69
2022/04/13 04:49:09;;;;;;;0.88;0.80;;;;;;;4.05;100.00;99766.16;1784548;80;21069;-69
2022/04/13 04:51:36;;;;;;;1.10;0.90;;;;;;;4.03;100.00;99775.32;1760318;80;21160;-70
2022/04/13 04:54:04;;;;;;;1.30;0.85;;;;;;;4.05;100.00;99777.46;1753562;81;21028;-71
2022/04/13 04:56:31;;;;;;;1.67;1.10;;;;;;;4.05;100.00;99780.48;1753536;81;22040;-70
2022/04/13 04:58:57;;;;;;;1.40;0.90;;;;;;;4.04;100.00;99769.66;1753816;81;21580;-71
2022/04/13 05:01:24;;;;;;;1.32;1.00;;;;;;;4.06;100.00;99762.68;1771415;80;21032;-71
2022/04/13 05:03:51;;;;;;;2.77;1.12;;;;;;;4.04;100.00;99770.96;1784778;80;21138;-70
2022/04/13 05:06:23;;;;;;;1.12;0.98;;;;;;;4.03;100.00;99769.26;1756616;80;21254;-70
2022/04/13 05:08:51;;;;;;;2.65;1.02;;;;;;;4.04;100.00;99764.00;1780000;80;21184;-71
2022/04/13 05:11:18;;;;;;;1.15;1.00;;;;;;;4.05;100.00;99766.16;1784018;80;21295;-70
2022/04/13 05:13:45;;;;;;;1.00;0.90;;;;;;;4.03;100.00;99773.16;1784947;80;20985;-71
2022/04/13 05:16:16;;;;;;;1.90;1.00;;;;;;;4.02;100.00;99770.13;1784729;80;20985;-70
2022/04/13 05:18:45;;;;;;;2.83;0.95;;;;;;;3.99;100.00;99769.28;1785012;80;21049;-70
2022/04/13 05:21:13;;;;;;;2.17;1.10;;;;;;;3.98;100.00;99772.79;1756840;80;21548;-70
2022/04/13 05:23:41;;;;;;;1.95;0.90;;;;;;;3.97;100.00;99772.80;1784717;80;21057;-70
2022/04/13 05:26:08;;;;;;;2.83;1.10;;;;;;;3.98;100.00;99766.27;1784763;80;21037;-70
2022/04/13 05:28:36;;;;;;;1.00;0.80;;;;;;;4.01;100.00;99772.33;1784830;80;21020;-70
2022/04/13 05:31:02;;;;;;;1.37;0.90;;;;;;;4.03;100.00;99774.47;1770715;80;21031;-71
2022/04/13 05:33:30;;;;;;;1.82;0.90;;;;;;;4.02;100.00;99765.77;1753771;81;21146;-70
2022/04/13 05:35:57;;;;;;;2.02;1.00;;;;;;;4.01;100.00;99771.02;1753671;81;21076;-70
2022/04/13 05:38:24;;;;;;;1.75;0.85;;;;;;;4.02;100.00;99771.42;1753915;81;21028;-70
2022/04/13 05:40:51;;;;;;;1.47;1.00;;;;;;;4.04;100.00;99778.33;1753696;81;20991;-69
2022/04/13 05:43:18;;;;;;;4.20;1.20;;;;;;;4.07;100.00;99776.11;1753775;81;21096;-70
2022/04/13 05:45:47;;;;;;;2.47;1.20;;;;;;;4.05;100.00;99777.88;1753788;81;21013;-70
2022/04/13 05:48:13;;;;;;;1.85;1.22;;;;;;;4.08;100.00;99768.73;1753635;81;20973;-70
2022/04/13 05:50:40;;;;;;;1.95;1.00;;;;;;;4.10;100.00;99783.91;1753686;81;21553;-69
2022/04/13 05:53:08;;;;;;;2.50;0.85;;;;;;;4.13;100.00;99785.14;1753699;81;21024;-70
2022/04/13 05:55:35;;;;;;;1.42;0.85;;;;;;;4.19;100.00;99788.52;1753539;81;22219;-70
2022/04/13 05:58:03;;;;;;;1.40;0.95;;;;;;;4.23;100.00;99797.13;1753724;81;21064;-70
2022/04/13 06:00:30;;;;;;;1.62;1.00;;;;;;;4.26;100.00;99784.06;1753883;80;21032;-70
2022/04/13 06:02:58;;;;;;;1.75;1.00;;;;;;;4.28;100.00;99787.51;1753624;81;21072;-70
2022/04/13 06:05:26;;;;;;;1.30;0.85;;;;;;;4.28;100.00;99795.33;1753742;81;21008;-69
2022/04/13 06:07:54;;;;;;;2.15;1.00;;;;;;;4.26;100.00;99790.58;1753729;81;21063;-70
2022/04/13 06:10:22;;;;;;;2.27;1.10;;;;;;;4.28;100.00;99791.84;1751320;81;21334;-70
2022/04/13 06:12:52;;;;;;;2.00;1.10;;;;;;;4.28;100.00;99799.23;1748151;82;21567;-70
2022/04/13 06:15:20;;;;;;;1.65;1.20;;;;;;;4.30;100.00;99790.95;1747950;82;21573;-70
2022/04/13 06:17:48;;;;;;;3.02;1.00;;;;;;;4.30;100.00;99797.47;1748168;82;21065;-71
2022/04/13 06:20:14;;;;;;;1.00;0.90;;;;;;;4.27;100.00;99801.41;1748167;82;21041;-70
2022/04/13 06:22:42;;;;;;;3.42;0.80;;;;;;;4.30;100.00;99809.20;1748215;82;21224;-70
2022/04/13 06:25:10;;;;;;;1.42;0.78;;;;;;;4.30;100.00;99807.02;1748145;82;21081;-70
2022/04/13 06:27:40;;;;;;;0.98;0.90;;;;;;;4.30;100.00;99806.59;1748400;82;21108;-70
2022/04/13 06:30:09;;;;;;;1.90;0.88;;;;;;;4.30;100.00;99814.41;1748319;82;20993;-69
2022/04/13 06:32:40;;;;;;;1.10;0.70;;;;;;;4.32;100.00;99807.85;1748521;82;21568;-70
2022/04/13 06:35:11;;;;;;;1.40;1.00;;;;;;;4.32;100.00;99815.22;1748020;82;21304;-70
2022/04/13 06:37:43;;;;;;;3.37;1.50;;;;;;;4.36;100.00;99819.51;1748465;82;21587;-69
2022/04/13 06:40:12;;;;;;;2.02;1.00;;;;;;;4.39;100.00;99815.98;1747946;80;21112;-72
2022/04/13 06:42:41;;;;;;;1.72;0.78;;;;;;;4.40;100.00;99821.64;1748171;82;21025;-69
2022/04/13 06:45:10;;;;;;;3.15;1.20;;;;;;;4.41;100.00;99824.20;1747899;82;21024;-70
2022/04/13 06:47:37;;;;;;;1.77;0.80;;;;;;;4.45;100.00;99813.73;1748201;82;21088;-70
2022/04/13 06:50:07;;;;;;;1.57;0.90;;;;;;;4.47;100.00;99825.00;1752512;80;21018;-70
2022/04/13 06:52:35;;;;;;;1.25;0.90;;;;;;;4.48;100.00;99834.08;1779176;80;21119;-70
2022/04/13 06:55:03;;;;;;;2.17;1.20;;;;;;;4.48;100.00;99834.53;1778689;80;21103;-71
2022/04/13 06:57:33;;;;;;;1.15;1.00;;;;;;;4.47;100.00;99833.67;1778969;80;21033;-70
2022/04/13 06:59:58;;;;;;;2.35;1.00;;;;;;;4.46;100.00;99833.70;1778714;80;21136;-70
2022/04/13 07:02:26;;;;;;;1.85;0.98;;;;;;;4.46;100.00;99829.78;1778891;80;21175;-70
2022/04/13 07:04:53;;;;;;;1.80;1.10;;;;;;;4.49;100.00;99832.36;1778905;80;21021;-71
2022/04/13 07:07:19;;;;;;;1.98;1.00;;;;;;;4.49;100.00;99838.43;1778917;80;21108;-70
2022/04/13 07:09:48;;;;;;;4.00;1.20;;;;;;;4.49;100.00;99842.34;1778740;80;21064;-71
2022/04/13 07:12:15;;;;;;;1.37;0.80;;;;;;;4.46;100.00;99841.06;1779049;80;21263;-70
2022/04/13 07:14:41;;;;;;;2.50;1.30;;;;;;;4.46;100.00;99838.91;1779042;80;21033;-70
2022/04/13 07:17:09;;;;;;;2.42;1.40;;;;;;;4.45;100.00;99848.94;1778745;80;21029;-72
2022/04/13 07:19:37;;;;;;;2.87;1.60;;;;;;;4.46;100.00;99848.03;1778847;80;21016;-69
2022/04/13 07:22:04;;;;;;;3.35;1.37;;;;;;;4.45;100.00;99848.94;1778749;80;22226;-71
2022/04/13 07:24:31;;;;;;;2.50;1.20;;;;;;;4.48;100.00;99853.64;1778846;80;21172;-73
2022/04/13 07:26:59;;;;;;;2.17;1.47;;;;;;;4.50;100.00;99849.72;1778617;80;21024;-70
2022/04/13 07:29:28;;;;;;;1.80;1.40;;;;;;;4.51;100.00;99852.31;1778782;80;21044;-69
2022/04/13 07:31:54;;;;;;;2.10;1.05;;;;;;;4.55;100.00;99856.56;1778714;80;21093;-70
2022/04/13 07:34:22;;;;;;;1.87;1.00;;;;;;;4.56;100.00;99847.02;1778816;80;21034;-71
2022/04/13 07:36:49;;;;;;;2.12;1.12;;;;;;;4.58;100.00;99853.92;1778850;80;21312;-71
2022/04/13 07:39:16;;;;;;;2.80;1.50;;;;;;;4.60;100.00;99849.55;1778605;80;21009;-69
2022/04/13 07:41:44;;;;;;;1.37;1.10;;;;;;;4.64;100.00;99850.33;1778868;80;21576;-70
2022/04/13 07:44:12;;;;;;;3.98;1.30;;;;;;;4.68;100.00;99851.16;1779006;80;21045;-70
2022/04/13 07:46:38;;;;;;;1.92;1.07;;;;;;;4.67;100.00;99860.73;1778934;80;21048;-71
2022/04/13 07:49:06;;;;;;;3.60;1.25;;;;;;;4.64;100.00;99858.16;1778883;80;21287;-70
2022/04/13 07:51:33;;;;;;;1.95;1.35;;;;;;;4.66;100.00;99856.39;1755360;80;21521;-71
2022/04/13 07:54:05;;;;;;;2.27;1.30;;;;;;;4.69;100.00;99861.54;1747999;82;21025;-69
2022/04/13 07:56:31;;;;;;;1.47;1.07;;;;;;;4.73;100.00;99862.36;1747466;82;21068;-69
2022/04/13 07:58:57;;;;;;;2.30;1.30;;;;;;;4.74;100.00;99870.17;1748132;82;21158;-71
2022/04/13 08:01:24;;;;;;;2.35;1.30;;;;;;;4.78;100.00;99861.83;1747909;82;21210;-71
2022/04/13 08:03:51;;;;;;;2.00;1.37;;;;;;;4.80;100.00;99870.05;1748065;82;21006;-70
2022/04/13 08:06:19;;;;;;;3.30;1.55;;;;;;;4.84;100.00;99873.02;1747968;82;21033;-70
2022/04/13 08:08:46;;;;;;;3.70;1.60;;;;;;;4.83;100.00;99872.62;1747987;82;21036;-71
2022/04/13 08:11:14;;;;;;;2.22;1.47;;;;;;;4.89;100.00;99873.39;1750547;80;21053;-70
2022/04/13 08:13:42;;;;;;;1.30;1.20;;;;;;;4.93;100.00;99882.89;1753885;81;21254;-70
2022/04/13 08:16:09;;;;;;;1.60;1.20;;;;;;;4.98;100.00;99875.84;1753546;81;21028;-72
2022/04/13 08:18:37;;;;;;;2.00;1.40;;;;;;;4.98;100.00;99876.69;1753579;81;21024;-71
2022/04/13 08:21:04;;;;;;;3.40;1.42;;;;;;;5.01;100.00;99883.59;1753322;81;21032;-72
2022/04/13 08:23:30;;;;;;;3.00;1.27;;;;;;;5.02;100.00;99881.42;1753700;81;21041;-71
2022/04/13 08:25:57;;;;;;;2.02;1.10;;;;;;;5.09;100.00;99882.17;1753507;81;21196;-69
2022/04/13 08:28:23;;;;;;;2.60;1.75;;;;;;;5.09;100.00;99880.87;1753680;81;21033;-71
2022/04/13 08:30:50;;;;;;;1.85;1.50;;;;;;;5.11;100.00;99886.47;1753745;81;21044;-71
2022/04/13 08:33:17;;;;;;;3.62;1.92;;;;;;;5.15;100.00;99888.11;1753690;81;21039;-70
2022/04/13 08:35:47;;;;;;;2.08;1.45;;;;;;;5.13;100.00;99887.73;1753724;81;21076;-69
2022/04/13 08:38:14;;;;;;;4.42;1.77;;;;;;;5.15;100.00;99899.86;1753716;81;21257;-71
2022/04/13 08:40:49;;;;;;;2.75;1.57;;;;;;;5.14;100.00;99896.84;1753823;81;21080;-72
2022/04/13 08:43:19;;;;;;;5.92;1.98;;;;;;;5.16;100.00;99900.30;1754122;81;21497;-69
2022/04/13 08:45:54;;;;;;;3.30;1.70;;;;;;;5.22;100.00;99905.41;1753952;81;22006;-71
2022/04/13 08:48:24;;;;;;;3.05;1.70;;;;;;;5.22;100.00;99906.72;1753644;81;21606;-71
2022/04/13 08:50:59;;;;;;;3.85;1.90;;;;;;;5.22;100.00;99905.83;1753700;81;21049;-72
2022/04/13 08:53:29;;;;;;;3.98;1.67;;;;;;;5.20;100.00;99898.05;1753692;81;21041;-70
2022/04/13 08:55:58;;;;;;;1.92;1.20;;;;;;;5.19;100.00;99898.92;1754139;81;21127;-72
2022/04/13 08:59:01;;;;;;;1.62;1.40;;;;;;;5.22;100.00;99911.94;1753799;81;21457;-70
2022/04/13 09:01:40;;;;;;;2.00;1.35;;;;;;;5.25;100.00;99896.66;1752905;81;21091;-71
2022/04/13 09:04:10;;;;;;;1.40;1.10;;;;;;;5.24;100.00;99907.55;1757072;81;21232;-70
2022/04/13 09:06:40;;;;;;;2.42;1.20;;;;;;;5.23;100.00;99896.67;1753772;81;21033;-70
2022/04/13 09:09:15;;;;;;;2.25;1.40;;;;;;;5.22;100.00;99913.24;1753874;81;21060;-70
2022/04/13 09:11:44;;;;;;;2.02;1.20;;;;;;;5.20;100.00;99916.33;1750895;81;21580;-70
2022/04/13 09:14:11;;;;;;;2.40;1.50;;;;;;;5.18;100.00;99912.02;1748390;82;21021;-71
2022/04/13 09:16:41;;;;;;;2.58;1.20;;;;;;;5.18;100.00;99918.09;1748239;82;21886;-70
2022/04/13 09:19:09;;;;;;;1.50;1.10;;;;;;;5.22;100.00;99917.58;1748308;82;21533;-71
2022/04/13 09:21:38;;;;;;;1.25;1.00;;;;;;;5.22;100.00;99915.85;1748100;82;21069;-71
2022/04/13 09:24:07;;;;;;;1.70;1.20;;;;;;;5.24;100.00;99918.00;1719231;82;21040;-70
2022/04/13 09:26:38;;;;;;;2.00;1.12;;;;;;;5.26;100.00;99913.58;1719956;82;21036;-73
2022/04/13 09:29:05;;;;;;;1.82;1.27;;;;;;;5.28;100.00;99911.40;1748223;82;21070;-70
2022/04/13 09:31:32;;;;;;;2.33;1.30;;;;;;;5.30;100.00;99917.45;1732240;82;21048;-71
2022/04/13 09:34:00;;;;;;;2.67;1.60;;;;;;;5.35;100.00;99913.85;1719095;82;21435;-71
2022/04/13 09:36:26;;;;;;;1.30;1.05;;;;;;;5.41;100.00;99915.50;1748115;82;21040;-70
2022/04/13 09:38:54;;;;;;;2.42;1.52;;;;;;;5.42;100.00;99917.21;1719248;82;21017;-70
2022/04/13 09:41:24;;;;;;;1.70;1.20;;;;;;;5.43;100.00;99912.42;1748015;82;21232;-71
2022/04/13 09:43:56;;;;;;;2.75;1.32;;;;;;;5.47;100.00;99914.06;1723492;82;21041;-70
2022/04/13 09:46:29;;;;;;;1.30;0.90;;;;;;;5.48;100.00;99911.88;1747908;82;20998;-72
2022/04/13 09:49:17;;;;;;;2.00;1.17;;;;;;;5.52;100.00;99918.77;1748256;82;21088;-71
2022/04/13 09:51:49;;;;;;;1.12;0.90;;;;;;;5.53;100.00;99916.56;1742887;82;20998;-71
2022/04/13 09:54:16;;;;;;;1.00;0.85;;;;;;;5.59;100.00;99928.62;1742385;82;21805;-70
2022/04/13 09:56:47;;;;;;;3.40;1.10;;;;;;;5.60;100.00;99938.20;1742126;82;21561;-70
2022/04/13 09:59:30;;;;;;;1.10;1.00;;;;;;;5.62;100.00;99942.50;1742542;82;21053;-71
2022/04/13 10:01:59;;;;;;;0.85;0.80;;;;;;;5.63;100.00;99927.23;1742196;82;21101;-72
2022/04/13 10:04:29;;;;;;;1.20;1.05;;;;;;;5.61;100.00;99940.80;1742339;82;21101;-71
2022/04/13 10:07:15;;;;;;;1.12;0.90;;;;;;;5.60;100.00;99950.81;1742008;82;21403;-71
2022/04/13 10:09:42;;;;;;;1.42;0.80;;;;;;;5.60;100.00;99946.03;1742258;82;21049;-71
2022/04/13 10:12:12;;;;;;;1.00;0.90;;;;;;;5.65;100.00;99952.03;1746064;81;21521;-70
2022/04/13 10:14:39;;;;;;;1.10;1.00;;;;;;;5.67;100.00;99943.27;1748640;82;21021;-71
2022/04/13 10:17:08;;;;;;;1.12;0.88;;;;;;;5.70;100.00;99949.33;1748327;82;21485;-70
2022/04/13 10:19:37;;;;;;;1.30;0.85;;;;;;;5.74;100.00;99950.53;1748215;82;21109;-70
2022/04/13 10:22:07;;;;;;;2.37;1.25;;;;;;;5.80;100.00;99956.11;1748158;81;22117;-71
2022/04/13 10:24:40;;;;;;;1.05;0.70;;;;;;;5.87;100.00;99951.16;1748453;81;21096;-70
2022/04/13 10:27:12;;;;;;;0.60;0.60;;;;;;;5.96;100.00;99964.08;1748743;82;21636;-71
2022/04/13 10:29:41;;;;;;;1.30;0.90;;;;;;;6.03;100.00;99960.89;1748596;82;21109;-72
2022/04/13 10:32:18;;;;;;;0.70;0.70;;;;;;;6.08;100.00;99954.66;1748833;81;21095;-71
2022/04/13 10:34:50;;;;;;;1.98;0.75;;;;;;;6.14;100.00;99959.33;1748624;82;21084;-70
2022/04/13 10:37:23;;;;;;;1.20;0.88;;;;;;;6.13;100.00;99966.77;1748662;81;21037;-70
2022/04/13 10:39:54;;;;;;;2.05;0.90;;;;;;;6.12;100.00;99951.97;1748703;82;21037;-71
2022/04/13 10:42:21;;;;;;;2.37;0.80;;;;;;;6.05;100.00;99966.92;1748780;82;21564;-70
2022/04/13 10:45:05;;;;;;;1.00;0.90;;;;;;;6.00;100.00;99953.94;1748759;82;21841;-70
2022/04/13 10:47:57;;;;;;;1.27;0.70;;;;;;;5.95;100.00;99966.25;1748529;82;21147;-70
2022/04/13 10:50:38;;;;;;;0.70;0.60;;;;;;;5.93;100.00;99968.00;1757346;80;21032;-70
2022/04/13 10:53:28;;;;;;;1.05;0.80;;;;;;;5.88;100.00;99963.33;1776822;80;21651;-73
2022/04/13 10:56:06;;;;;;;1.37;0.70;;;;;;;5.83;100.00;99971.71;1780050;80;21095;-69
2022/04/13 10:59:11;;;;;;;0.70;0.57;;;;;;;5.75;100.00;99978.83;1779583;80;21059;-71
2022/04/13 11:01:47;;;;;;;1.47;0.80;;;;;;;5.61;100.00;99968.23;1753399;80;21033;-70
2022/04/13 11:04:14;;;;;;;1.15;0.80;;;;;;;5.55;100.00;99980.09;1779649;80;21041;-71
2022/04/13 11:06:40;;;;;;;1.22;0.60;;;;;;;5.51;100.00;99977.11;1779753;80;21071;-71
2022/04/13 11:09:15;;;;;;;0.78;0.60;;;;;;;5.50;100.00;99981.93;1779680;80;21076;-71
2022/04/13 11:11:42;;;;;;;0.50;0.50;;;;;;;5.50;100.00;99985.84;1768067;80;21259;-71
2022/04/13 11:14:20;;;;;;;0.98;0.70;;;;;;;5.49;100.00;99982.80;1748094;82;21383;-70
2022/04/13 11:16:47;;;;;;;1.35;0.85;;;;;;;5.50;100.00;99985.84;1747969;82;21036;-70
2022/04/13 11:19:17;;;;;;;0.95;0.80;;;;;;;5.52;100.00;99984.49;1748171;82;20986;-71
2022/04/13 11:21:56;;;;;;;1.00;0.80;;;;;;;5.49;100.00;99980.19;1748059;82;21051;-70
2022/04/13 11:24:50;;;;;;;0.60;0.60;;;;;;;5.45;100.00;99979.41;1748057;82;21245;-72
2022/04/13 11:27:17;;;;;;;0.78;0.60;;;;;;;5.44;100.00;99975.50;1747663;82;21032;-70
2022/04/13 11:29:59;;;;;;;1.00;0.80;;;;;;;5.38;100.00;99975.61;1747852;82;21032;-71
2022/04/13 11:32:31;;;;;;;0.80;0.70;;;;;;;5.36;100.00;99976.08;1748159;82;21016;-70
2022/04/13 11:34:59;;;;;;;1.75;1.00;;;;;;;5.40;100.00;99982.52;1743802;82;21020;-70
2022/04/13 11:37:43;;;;;;;1.10;0.90;;;;;;;5.39;100.00;99979.51;1747833;82;21148;-70
2022/04/13 11:40:13;;;;;;;2.98;0.85;;;;;;;5.39;100.00;99973.43;1747948;82;21067;-70
2022/04/13 11:42:47;;;;;;;1.67;0.90;;;;;;;5.39;100.00;99983.88;1748101;82;21033;-70
2022/04/13 11:45:17;;;;;;;3.00;1.42;;;;;;;5.39;100.00;99986.48;1747855;82;21028;-70
2022/04/13 11:47:54;;;;;;;1.00;0.90;;;;;;;5.40;100.00;99997.34;1747850;82;21127;-71